Marui Maru — JD2662 — position and weather

sailwx.info

Track history (hours):
 
Tides and Currents Weather Stations Pressure Air Temp Water Temp Dewpoint Dewpoint Depression Visibility Wind Speed Wind Dir Waves Ship Positions

Marui Maru

Last reported at 2018-Feb-17 22:04 UTC. Time now 2018-Feb-23 08:37 UTC.
Position N 35°03' E 139°44'.

Length 74 m.

Type: Cargo ship. MMSI: 431000566.

Date/timePositionNaut miles runAvg speedWind from/ knotsBaromVisibWave heightAir tempDewpointWater temp
2018-Feb-17 22:04N 35°03' E 139°44'111.7
2018-Feb-17 21:58N 35°04' E 139°44'611.9
2018-Feb-17 21:27N 35°10' E 139°46'511.8
2018-Feb-17 21:00N 35°15' E 139°46'611.0
2018-Feb-17 20:30N 35°20' E 139°43'4 7.9
2018-Feb-17 19:56N 35°23' E 139°40'0 0.1
2018-Feb-17 19:26N 35°23' E 139°40'0 0.1
2018-Feb-17 18:53N 35°23' E 139°40'0 0.1
2018-Feb-17 18:29N 35°23' E 139°40'0 0.0
2018-Feb-17 17:59N 35°23' E 139°40'0 0.0
2018-Feb-17 17:26N 35°23' E 139°40'0 0.0
2018-Feb-17 16:56N 35°23' E 139°40'0 0.0
2018-Feb-17 16:29N 35°23' E 139°40'0 0.0
2018-Feb-17 15:59N 35°23' E 139°40'0 0.0
2018-Feb-17 15:29N 35°23' E 139°40'0 0.0
2018-Feb-17 14:56N 35°23' E 139°40'0 0.0
2018-Feb-17 14:29N 35°23' E 139°40'0 0.0
2018-Feb-17 13:59N 35°23' E 139°40'0 0.0
2018-Feb-17 13:29N 35°23' E 139°40'0 0.0
2018-Feb-17 12:59N 35°23' E 139°40'0 0.0
2018-Feb-17 12:26N 35°23' E 139°40'0 0.0
2018-Feb-17 11:50N 35°23' E 139°40'0 0.0
2018-Feb-17 11:23N 35°23' E 139°40'0 0.0
2018-Feb-17 10:59N 35°23' E 139°40'0 0.0
2018-Feb-17 10:29N 35°23' E 139°40'0 0.0
2018-Feb-17 09:59N 35°23' E 139°40'0 0.0
2018-Feb-17 09:26N 35°23' E 139°40'0 0.0
2018-Feb-17 08:56N 35°23' E 139°40'0 0.0
2018-Feb-17 08:29N 35°23' E 139°40'0 0.0
2018-Feb-17 07:56N 35°23' E 139°40'0 0.0
2018-Feb-17 07:29N 35°23' E 139°40'0 0.0
2018-Feb-17 06:59N 35°23' E 139°40'0 0.0
2018-Feb-17 06:29N 35°23' E 139°40'0 0.0
2018-Feb-17 05:56N 35°23' E 139°40'0 0.1
2018-Feb-17 05:26N 35°23' E 139°40'0 0.0
2018-Feb-17 04:56N 35°23' E 139°40'0 0.0
2018-Feb-17 04:29N 35°23' E 139°40'0 0.0
2018-Feb-17 03:56N 35°23' E 139°40'0 0.2
2018-Feb-17 03:29N 35°24' E 139°40'0 0.1
2018-Feb-17 02:50N 35°24' E 139°40'0 0.1
2018-Feb-17 02:29N 35°23' E 139°40'0 0.1
2018-Feb-17 01:50N 35°23' E 139°40'0 0.0
2018-Feb-17 01:29N 35°23' E 139°40'0 0.0
2018-Feb-17 00:59N 35°23' E 139°40'0 0.0
2018-Feb-17 00:26N 35°23' E 139°40'0 0.0
2018-Feb-16 23:59N 35°23' E 139°40'0 0.0
2018-Feb-16 23:26N 35°23' E 139°40'0 0.0
2018-Feb-16 22:56N 35°23' E 139°40'0 0.0
2018-Feb-16 22:29N 35°23' E 139°40'0 0.0
2018-Feb-16 21:59N 35°23' E 139°40'0 0.0
2018-Feb-16 21:29N 35°23' E 139°40'0 0.0
2018-Feb-16 20:59N 35°23' E 139°40'0 0.0
2018-Feb-16 20:17N 35°23' E 139°40'0 0.0
2018-Feb-16 19:59N 35°23' E 139°40'0 0.0
2018-Feb-16 19:29N 35°23' E 139°40'0 0.0
2018-Feb-16 18:59N 35°23' E 139°40'0 0.0
2018-Feb-16 18:29N 35°23' E 139°40'0 0.0
2018-Feb-16 17:59N 35°23' E 139°40'0 0.1
2018-Feb-16 17:26N 35°23' E 139°40'0 0.1
2018-Feb-16 16:56N 35°23' E 139°40'2 3.6
2018-Feb-16 16:30N 35°24' E 139°42'510.1
2018-Feb-16 16:00N 35°25' E 139°48'4 5.9
2018-Feb-16 15:19N 35°21' E 139°51'0 0.0
2018-Feb-16 14:58N 35°21' E 139°51'0 0.0
2018-Feb-16 14:25N 35°21' E 139°51'0 0.0
2018-Feb-16 13:22N 35°21' E 139°51'0 0.0
2018-Feb-16 12:46N 35°21' E 139°51'0 0.0
2018-Feb-16 11:31N 35°21' E 139°51'0 0.1
2018-Feb-16 11:28N 35°21' E 139°51'0 0.0
2018-Feb-16 07:58N 35°21' E 139°51'0 0.0
2018-Feb-16 07:25N 35°21' E 139°51'0 0.0
2018-Feb-16 06:55N 35°21' E 139°51'0 0.0
2018-Feb-16 06:19N 35°21' E 139°51'0 0.0
2018-Feb-16 05:55N 35°21' E 139°51'0 0.0
2018-Feb-16 05:19N 35°21' E 139°51'0 0.0
2018-Feb-16 04:55N 35°21' E 139°51'0 0.0
2018-Feb-16 04:25N 35°21' E 139°51'0 0.0
2018-Feb-16 03:58N 35°21' E 139°51'0 0.0
2018-Feb-16 03:25N 35°21' E 139°51'0 0.0
2018-Feb-16 02:55N 35°21' E 139°51'0 0.0
2018-Feb-16 02:25N 35°21' E 139°51'0 0.0
2018-Feb-16 01:55N 35°21' E 139°51'0 0.3
2018-Feb-16 01:28N 35°21' E 139°51'0 0.0
2018-Feb-16 00:46N 35°21' E 139°51'0 0.0
2018-Feb-16 00:22N 35°21' E 139°51'0 0.0
2018-Feb-15 23:49N 35°21' E 139°51'0 0.0
2018-Feb-15 23:16N 35°21' E 139°51'0 0.0
2018-Feb-15 22:58N 35°21' E 139°51'0 0.0
2018-Feb-15 22:28N 35°21' E 139°51'0 0.0
2018-Feb-15 21:58N 35°21' E 139°51'0 0.0
2018-Feb-15 21:28N 35°21' E 139°51'0 0.0
2018-Feb-15 20:58N 35°21' E 139°51'0 0.0
2018-Feb-15 20:28N 35°21' E 139°51'0 0.0
2018-Feb-15 19:55N 35°21' E 139°51'0 0.0
2018-Feb-15 19:25N 35°21' E 139°51'0 0.0
2018-Feb-15 18:58N 35°21' E 139°51'0 0.0
2018-Feb-15 18:28N 35°21' E 139°51'0 0.0
2018-Feb-15 17:58N 35°21' E 139°51'0 0.0
2018-Feb-15 17:22N 35°21' E 139°51'0 0.0
2018-Feb-15 16:58N 35°21' E 139°51'0 0.0
2018-Feb-15 16:28N 35°21' E 139°51'0 0.0
2018-Feb-15 15:58N 35°21' E 139°51'0 0.0
2018-Feb-15 15:28N 35°21' E 139°51'0 0.0
2018-Feb-15 14:58N 35°21' E 139°51'0 0.0
2018-Feb-15 14:28N 35°21' E 139°51'0 0.0
2018-Feb-15 13:58N 35°21' E 139°51'0 0.0
2018-Feb-15 13:28N 35°21' E 139°51'0 0.0
2018-Feb-15 12:55N 35°21' E 139°51'0 0.0
2018-Feb-15 12:28N 35°21' E 139°51'0 0.1
2018-Feb-15 11:53N 35°21' E 139°51'2 6.5
2018-Feb-15 11:30N 35°23' E 139°49'510.4
2018-Feb-15 11:00N 35°28' E 139°50'10 0.3
2018-Feb-14 04:52N 35°37' E 139°48'9 2.9
2018-Feb-14 01:46N 35°29' E 139°52'311.9
2018-Feb-14 01:30N 35°27' E 139°49'611.5
2018-Feb-14 01:00N 35°22' E 139°45'510.4
2018-Feb-14 00:30N 35°17' E 139°46'710.8
2018-Feb-13 23:49N 35°09' E 139°46'511.2
2018-Feb-13 23:23N 35°05' E 139°43'24410.6
2018-Feb-13 00:29N 33°53' E 135°01'612.0
2018-Feb-13 00:00N 33°58' E 134°60'610.9
2018-Feb-12 23:28N 34°04' E 135°01'610.9
2018-Feb-12 22:53N 34°09' E 135°06'4 0.2
2018-Feb-11 19:04N 34°09' E 135°12'0 0.0
2018-Feb-11 18:52N 34°09' E 135°12'0 0.0
2018-Feb-11 18:28N 34°09' E 135°12'0 0.0
2018-Feb-10 22:27N 34°09' E 135°12'4 8.7
2018-Feb-10 21:57N 34°10' E 135°07'4 8.2
2018-Feb-10 21:30N 34°14' E 135°05'2 3.9
2018-Feb-10 21:00N 34°15' E 135°07'0 0.1
2018-Feb-10 20:25N 34°15' E 135°07'0 0.0
2018-Feb-10 19:55N 34°15' E 135°07'0 0.0
2018-Feb-10 19:22N 34°15' E 135°07'0 0.0
2018-Feb-10 18:55N 34°15' E 135°07'0 0.0
2018-Feb-10 18:25N 34°15' E 135°07'0 0.0
2018-Feb-10 17:49N 34°15' E 135°07'0 0.0
2018-Feb-10 17:28N 34°15' E 135°07'0 0.0
2018-Feb-10 16:49N 34°15' E 135°07'0 0.0
2018-Feb-10 16:22N 34°15' E 135°07'0 0.0
2018-Feb-10 15:55N 34°15' E 135°07'0 0.0
2018-Feb-10 15:13N 34°15' E 135°07'0 0.0
2018-Feb-10 14:55N 34°15' E 135°07'0 0.0
2018-Feb-10 14:19N 34°15' E 135°07'0 0.0
2018-Feb-10 13:55N 34°15' E 135°07'0 0.0
2018-Feb-10 13:25N 34°15' E 135°07'0 0.0
2018-Feb-10 12:55N 34°15' E 135°07'0 0.0
2018-Feb-10 12:19N 34°15' E 135°07'0 0.0
2018-Feb-10 11:55N 34°15' E 135°07'0 0.0
2018-Feb-10 08:37N 34°15' E 135°07'0 0.0
2018-Feb-10 08:25N 34°15' E 135°07'0 0.0
2018-Feb-10 07:55N 34°15' E 135°07'0 0.0
2018-Feb-10 07:25N 34°15' E 135°07'0 0.0
2018-Feb-10 05:40N 34°15' E 135°07'0 0.0
2018-Feb-10 05:19N 34°15' E 135°07'0 0.0
2018-Feb-10 04:49N 34°15' E 135°07'0 0.0
2018-Feb-10 04:25N 34°15' E 135°07'0 0.0
2018-Feb-10 03:55N 34°15' E 135°07'0 0.0
2018-Feb-10 03:25N 34°15' E 135°07'0 0.0
2018-Feb-10 02:58N 34°15' E 135°07'0 0.0
2018-Feb-10 02:25N 34°15' E 135°07'0 0.0
2018-Feb-10 01:40N 34°15' E 135°07'0 0.0
2018-Feb-10 01:25N 34°15' E 135°07'0 0.0
2018-Feb-10 00:49N 34°15' E 135°07'0 0.0
2018-Feb-09 23:22N 34°15' E 135°07'0 0.0
2018-Feb-09 22:49N 34°15' E 135°07'0 0.0
2018-Feb-09 22:34N 34°15' E 135°07'  
Track history (hours):
 
Tides and Currents Weather Stations Pressure Air Temp Water Temp Dewpoint Dewpoint Depression Visibility Wind Speed Wind Dir Waves Ship Positions

Marui Maru

Last reported at 2018-Feb-17 22:04 UTC. Time now 2018-Feb-23 08:37 UTC.
Position N 35°03' E 139°44'.

Length 74 m.

Type: Cargo ship. MMSI: 431000566.

Date/timePositionNaut miles runAvg speedWind from/ knotsBaromVisibWave heightAir tempDewpointWater temp
2018-Feb-17 22:04N 35°03' E 139°44'111.7
2018-Feb-17 21:58N 35°04' E 139°44'611.9
2018-Feb-17 21:27N 35°10' E 139°46'511.8
2018-Feb-17 21:00N 35°15' E 139°46'611.0
2018-Feb-17 20:30N 35°20' E 139°43'4 7.9
2018-Feb-17 19:56N 35°23' E 139°40'0 0.1
2018-Feb-17 19:26N 35°23' E 139°40'0 0.1
2018-Feb-17 18:53N 35°23' E 139°40'0 0.1
2018-Feb-17 18:29N 35°23' E 139°40'0 0.0
2018-Feb-17 17:59N 35°23' E 139°40'0 0.0
2018-Feb-17 17:26N 35°23' E 139°40'0 0.0
2018-Feb-17 16:56N 35°23' E 139°40'0 0.0
2018-Feb-17 16:29N 35°23' E 139°40'0 0.0
2018-Feb-17 15:59N 35°23' E 139°40'0 0.0
2018-Feb-17 15:29N 35°23' E 139°40'0 0.0
2018-Feb-17 14:56N 35°23' E 139°40'0 0.0
2018-Feb-17 14:29N 35°23' E 139°40'0 0.0
2018-Feb-17 13:59N 35°23' E 139°40'0 0.0
2018-Feb-17 13:29N 35°23' E 139°40'0 0.0
2018-Feb-17 12:59N 35°23' E 139°40'0 0.0
2018-Feb-17 12:26N 35°23' E 139°40'0 0.0
2018-Feb-17 11:50N 35°23' E 139°40'0 0.0
2018-Feb-17 11:23N 35°23' E 139°40'0 0.0
2018-Feb-17 10:59N 35°23' E 139°40'0 0.0
2018-Feb-17 10:29N 35°23' E 139°40'0 0.0
2018-Feb-17 09:59N 35°23' E 139°40'0 0.0
2018-Feb-17 09:26N 35°23' E 139°40'0 0.0
2018-Feb-17 08:56N 35°23' E 139°40'0 0.0
2018-Feb-17 08:29N 35°23' E 139°40'0 0.0
2018-Feb-17 07:56N 35°23' E 139°40'0 0.0
2018-Feb-17 07:29N 35°23' E 139°40'0 0.0
2018-Feb-17 06:59N 35°23' E 139°40'0 0.0
2018-Feb-17 06:29N 35°23' E 139°40'0 0.0
2018-Feb-17 05:56N 35°23' E 139°40'0 0.1
2018-Feb-17 05:26N 35°23' E 139°40'0 0.0
2018-Feb-17 04:56N 35°23' E 139°40'0 0.0
2018-Feb-17 04:29N 35°23' E 139°40'0 0.0
2018-Feb-17 03:56N 35°23' E 139°40'0 0.2
2018-Feb-17 03:29N 35°24' E 139°40'0 0.1
2018-Feb-17 02:50N 35°24' E 139°40'0 0.1
2018-Feb-17 02:29N 35°23' E 139°40'0 0.1
2018-Feb-17 01:50N 35°23' E 139°40'0 0.0
2018-Feb-17 01:29N 35°23' E 139°40'0 0.0
2018-Feb-17 00:59N 35°23' E 139°40'0 0.0
2018-Feb-17 00:26N 35°23' E 139°40'0 0.0
2018-Feb-16 23:59N 35°23' E 139°40'0 0.0
2018-Feb-16 23:26N 35°23' E 139°40'0 0.0
2018-Feb-16 22:56N 35°23' E 139°40'0 0.0
2018-Feb-16 22:29N 35°23' E 139°40'0 0.0
2018-Feb-16 21:59N 35°23' E 139°40'0 0.0
2018-Feb-16 21:29N 35°23' E 139°40'0 0.0
2018-Feb-16 20:59N 35°23' E 139°40'0 0.0
2018-Feb-16 20:17N 35°23' E 139°40'0 0.0
2018-Feb-16 19:59N 35°23' E 139°40'0 0.0
2018-Feb-16 19:29N 35°23' E 139°40'0 0.0
2018-Feb-16 18:59N 35°23' E 139°40'0 0.0
2018-Feb-16 18:29N 35°23' E 139°40'0 0.0
2018-Feb-16 17:59N 35°23' E 139°40'0 0.1
2018-Feb-16 17:26N 35°23' E 139°40'0 0.1
2018-Feb-16 16:56N 35°23' E 139°40'2 3.6
2018-Feb-16 16:30N 35°24' E 139°42'510.1
2018-Feb-16 16:00N 35°25' E 139°48'4 5.9
2018-Feb-16 15:19N 35°21' E 139°51'0 0.0
2018-Feb-16 14:58N 35°21' E 139°51'0 0.0
2018-Feb-16 14:25N 35°21' E 139°51'0 0.0
2018-Feb-16 13:22N 35°21' E 139°51'0 0.0
2018-Feb-16 12:46N 35°21' E 139°51'0 0.0
2018-Feb-16 11:31N 35°21' E 139°51'0 0.1
2018-Feb-16 11:28N 35°21' E 139°51'0 0.0
2018-Feb-16 07:58N 35°21' E 139°51'0 0.0
2018-Feb-16 07:25N 35°21' E 139°51'0 0.0
2018-Feb-16 06:55N 35°21' E 139°51'0 0.0
2018-Feb-16 06:19N 35°21' E 139°51'0 0.0
2018-Feb-16 05:55N 35°21' E 139°51'0 0.0
2018-Feb-16 05:19N 35°21' E 139°51'0 0.0
2018-Feb-16 04:55N 35°21' E 139°51'0 0.0
2018-Feb-16 04:25N 35°21' E 139°51'0 0.0
2018-Feb-16 03:58N 35°21' E 139°51'0 0.0
2018-Feb-16 03:25N 35°21' E 139°51'0 0.0
2018-Feb-16 02:55N 35°21' E 139°51'0 0.0
2018-Feb-16 02:25N 35°21' E 139°51'0 0.0
2018-Feb-16 01:55N 35°21' E 139°51'0 0.3
2018-Feb-16 01:28N 35°21' E 139°51'0 0.0
2018-Feb-16 00:46N 35°21' E 139°51'0 0.0
2018-Feb-16 00:22N 35°21' E 139°51'0 0.0
2018-Feb-15 23:49N 35°21' E 139°51'0 0.0
2018-Feb-15 23:16N 35°21' E 139°51'0 0.0
2018-Feb-15 22:58N 35°21' E 139°51'0 0.0
2018-Feb-15 22:28N 35°21' E 139°51'0 0.0
2018-Feb-15 21:58N 35°21' E 139°51'0 0.0
2018-Feb-15 21:28N 35°21' E 139°51'0 0.0
2018-Feb-15 20:58N 35°21' E 139°51'0 0.0
2018-Feb-15 20:28N 35°21' E 139°51'0 0.0
2018-Feb-15 19:55N 35°21' E 139°51'0 0.0
2018-Feb-15 19:25N 35°21' E 139°51'0 0.0
2018-Feb-15 18:58N 35°21' E 139°51'0 0.0
2018-Feb-15 18:28N 35°21' E 139°51'0 0.0
2018-Feb-15 17:58N 35°21' E 139°51'0 0.0
2018-Feb-15 17:22N 35°21' E 139°51'0 0.0
2018-Feb-15 16:58N 35°21' E 139°51'0 0.0
2018-Feb-15 16:28N 35°21' E 139°51'0 0.0
2018-Feb-15 15:58N 35°21' E 139°51'0 0.0
2018-Feb-15 15:28N 35°21' E 139°51'0 0.0
2018-Feb-15 14:58N 35°21' E 139°51'0 0.0
2018-Feb-15 14:28N 35°21' E 139°51'0 0.0
2018-Feb-15 13:58N 35°21' E 139°51'0 0.0
2018-Feb-15 13:28N 35°21' E 139°51'0 0.0
2018-Feb-15 12:55N 35°21' E 139°51'0 0.0
2018-Feb-15 12:28N 35°21' E 139°51'0 0.1
2018-Feb-15 11:53N 35°21' E 139°51'2 6.5
2018-Feb-15 11:30N 35°23' E 139°49'510.4
2018-Feb-15 11:00N 35°28' E 139°50'10 0.3
2018-Feb-14 04:52N 35°37' E 139°48'9 2.9
2018-Feb-14 01:46N 35°29' E 139°52'311.9
2018-Feb-14 01:30N 35°27' E 139°49'611.5
2018-Feb-14 01:00N 35°22' E 139°45'510.4
2018-Feb-14 00:30N 35°17' E 139°46'710.8
2018-Feb-13 23:49N 35°09' E 139°46'511.2
2018-Feb-13 23:23N 35°05' E 139°43'24410.6
2018-Feb-13 00:29N 33°53' E 135°01'612.0
2018-Feb-13 00:00N 33°58' E 134°60'610.9
2018-Feb-12 23:28N 34°04' E 135°01'610.9
2018-Feb-12 22:53N 34°09' E 135°06'4 0.2
2018-Feb-11 19:04N 34°09' E 135°12'0 0.0
2018-Feb-11 18:52N 34°09' E 135°12'0 0.0
2018-Feb-11 18:28N 34°09' E 135°12'0 0.0
2018-Feb-10 22:27N 34°09' E 135°12'4 8.7
2018-Feb-10 21:57N 34°10' E 135°07'4 8.2
2018-Feb-10 21:30N 34°14' E 135°05'2 3.9
2018-Feb-10 21:00N 34°15' E 135°07'0 0.1
2018-Feb-10 20:25N 34°15' E 135°07'0 0.0
2018-Feb-10 19:55N 34°15' E 135°07'0 0.0
2018-Feb-10 19:22N 34°15' E 135°07'0 0.0
2018-Feb-10 18:55N 34°15' E 135°07'0 0.0
2018-Feb-10 18:25N 34°15' E 135°07'0 0.0
2018-Feb-10 17:49N 34°15' E 135°07'0 0.0
2018-Feb-10 17:28N 34°15' E 135°07'0 0.0
2018-Feb-10 16:49N 34°15' E 135°07'0 0.0
2018-Feb-10 16:22N 34°15' E 135°07'0 0.0
2018-Feb-10 15:55N 34°15' E 135°07'0 0.0
2018-Feb-10 15:13N 34°15' E 135°07'0 0.0
2018-Feb-10 14:55N 34°15' E 135°07'0 0.0
2018-Feb-10 14:19N 34°15' E 135°07'0 0.0
2018-Feb-10 13:55N 34°15' E 135°07'0 0.0
2018-Feb-10 13:25N 34°15' E 135°07'0 0.0
2018-Feb-10 12:55N 34°15' E 135°07'0 0.0
2018-Feb-10 12:19N 34°15' E 135°07'0 0.0
2018-Feb-10 11:55N 34°15' E 135°07'0 0.0
2018-Feb-10 08:37N 34°15' E 135°07'0 0.0
2018-Feb-10 08:25N 34°15' E 135°07'0 0.0
2018-Feb-10 07:55N 34°15' E 135°07'0 0.0
2018-Feb-10 07:25N 34°15' E 135°07'0 0.0
2018-Feb-10 05:40N 34°15' E 135°07'0 0.0
2018-Feb-10 05:19N 34°15' E 135°07'0 0.0
2018-Feb-10 04:49N 34°15' E 135°07'0 0.0
2018-Feb-10 04:25N 34°15' E 135°07'0 0.0
2018-Feb-10 03:55N 34°15' E 135°07'0 0.0
2018-Feb-10 03:25N 34°15' E 135°07'0 0.0
2018-Feb-10 02:58N 34°15' E 135°07'0 0.0
2018-Feb-10 02:25N 34°15' E 135°07'0 0.0
2018-Feb-10 01:40N 34°15' E 135°07'0 0.0
2018-Feb-10 01:25N 34°15' E 135°07'0 0.0
2018-Feb-10 00:49N 34°15' E 135°07'0 0.0
2018-Feb-09 23:22N 34°15' E 135°07'0 0.0
2018-Feb-09 22:49N 34°15' E 135°07'0 0.0
2018-Feb-09 22:34N 34°15' E 135°07'  

Dump ship's entire track history